Airfield :
LOGIN :

Register | Disclaimer

   EN    FR    IT 

 










Legend :    VFR   Marginal VFR   IFR   Intensive IFR   Very Intensive IFR
Visi :
Ceiling :
>= 8 km
>= 3000ft
5 to 8 km
1000 to 3000 ft
1500m to 5 km
500 to 1000 ft
800 to 1500m
200 to 500 ft
< 800m
< 200 ft
Symbols :   Thunderstorms  Fog  Heavy snow  Heavy precipitations  Wind > 20 kt
SIGMETs :     Misc.  Thunderstorms  Icing  Turbulence  Mountain Waves  Volcanic Ashes







- Airport Elevation : 1989 ft
- IATA code : KLV


LKKV - Karlovy Vary

CURRENT METAR :
  • 270300Z VRB01KT 2000 R29/1300U BR FEW003 01/00 Q1010

EXPIRED METARs :
  • 270256Z VRB01KT 2500 R29/1200U BR FEW003 01/00 Q1010 RMK REG QNH 1009
  • 270200Z 06001KT 0800 R29/0700 FG SCT003 01/00 Q1010
  • 270148Z VRB01KT 0700 R29/0900D FG SCT003 01/01 Q1011 RMK REG QNH 1009
  • 270100Z 00000KT 1500 BR SCT002 01/01 Q1011

TAF TAF LKKV
Valid from the 27 at 00:00 until the 28 at 06:00 UTC


262300Z 2700/2806 VRB02KT 9999 BKN030
TEMPO 2700/2806 7000 -RA BKN025
PROB40
TEMPO 2700/2706 2000 BR SCT006
BECMG 2706/2709 05008KT
PROB40
TEMPO 2718/2806 4000 -SNRA BR BKN007
No reported NOTAMs for that airfield.



MET'MAP, your aeronautical weather chart ! - Copyright ORBIFLY December 2007 - Disclaimer

ORBIFLY MET'MAP TEAM :

Programming & Development : Alexandra Zaïnal
Concept & Development : Baudouin d'Aumeries
Co-Development & Prog : Marc-Olivier Méhu
Technical & hardware support : Manuel Goepfert

Contact : metmap@orbifly.com




SOURCES & CREDITS :

   NOAA